Time;durP1;ratioP1;P1;durP2;ratioP2;P2;SDS_P1;SDS_P2;PMS_P1;PMS_P2;Temp;Humidity;BMP_temperature;BMP_pressure;BME280_temperature;BME280_humidity;BME280_pressure;Samples;Min_cycle;Max_cycle;Signal;HPM_P1;HPM_P2
2022/06/08 00:00:28;;;;;;;;;;;;;;;32.30;31.25;99636.72;4422526;32;19957;-68
2022/06/08 00:02:58;;;;;;;;;;;;;;;32.31;31.02;99630.28;4421649;32;20391;-68
2022/06/08 00:05:24;;;;;;;;;;;;;;;32.28;30.59;99624.94;4423034;32;20017;-68
2022/06/08 00:07:49;;;;;;;;;;;;;;;31.93;30.72;99621.63;4424798;32;20387;-68
2022/06/08 00:10:15;;;;;;;;;;;;;;;32.07;30.82;99619.00;4426475;32;20364;-68
2022/06/08 00:12:41;;;;;;;;;;;;;;;32.22;30.91;99616.53;4424221;32;19995;-69
2022/06/08 00:15:08;;;;;;;;;;;;;;;32.23;31.23;99611.44;4422200;32;19987;-68
2022/06/08 00:17:33;;;;;;;;;;;;;;;31.95;34.32;99604.31;4421556;32;20292;-68
2022/06/08 00:19:59;;;;;;;;;;;;;;;31.91;33.05;99601.09;4422995;32;19998;-69
2022/06/08 00:22:25;;;;;;;;;;;;;;;31.99;32.54;99604.63;4425702;32;20336;-69
2022/06/08 00:24:51;;;;;;;;;;;;;;;32.23;32.26;99596.91;4421321;32;19994;-69
2022/06/08 00:27:18;;;;;;;;;;;;;;;32.35;32.29;99595.69;4423919;32;19957;-69
2022/06/08 00:29:43;;;;;;;;;;;;;;;32.38;32.22;99591.53;4422648;32;20302;-69
2022/06/08 00:32:09;;;;;;;;;;;;;;;32.46;31.99;99586.25;4424550;32;19992;-69
2022/06/08 00:34:35;;;;;;;;;;;;;;;32.48;31.74;99589.34;4422777;32;20047;-69
2022/06/08 00:37:01;;;;;;;;;;;;;;;32.41;31.23;99580.78;4423851;32;19997;-69
2022/06/08 00:39:27;;;;;;;;;;;;;;;32.43;31.43;99575.09;4425327;32;19949;-69
2022/06/08 00:41:54;;;;;;;;;;;;;;;32.70;31.21;99581.41;4425305;32;20014;-69
2022/06/08 00:44:23;;;;;;;;;;;;;;;32.35;31.34;99572.38;4423532;32;19984;-69
2022/06/08 00:46:50;;;;;;;;;;;;;;;32.15;31.63;99562.12;4419349;32;19977;-69
2022/06/08 00:49:23;;;;;;;;;;;;;;;32.28;31.50;99563.78;4423381;32;19990;-69
2022/06/08 00:51:49;;;;;;;;;;;;;;;32.53;30.76;99561.25;4423971;32;19959;-70
2022/06/08 00:54:25;;;;;;;;;;;;;;;32.67;30.92;99563.03;4422600;32;20030;-69
2022/06/08 00:56:54;;;;;;;;;;;;;;;32.79;30.74;99557.28;4419722;32;19992;-69
2022/06/08 00:59:20;;;;;;;;;;;;;;;32.80;30.83;99540.56;4423501;32;19981;-69
2022/06/08 01:01:46;;;;;;;;;;;;;;;32.74;30.66;99543.06;4420897;32;19964;-69
2022/06/08 01:04:13;;;;;;;;;;;;;;;32.79;30.83;99539.03;4422042;32;20022;-70
2022/06/08 01:06:40;;;;;;;;;;;;;;;32.80;30.46;99523.84;4423131;32;20021;-70
2022/06/08 01:09:11;;;;;;;;;;;;;;;32.78;30.15;99528.75;4425403;32;20587;-70
2022/06/08 01:11:43;;;;;;;;;;;;;;;32.98;30.26;99528.06;4422809;32;20379;-69
2022/06/08 01:14:12;;;;;;;;;;;;;;;32.98;30.15;99516.41;4421962;32;20032;-70
2022/06/08 01:16:57;;;;;;;;;;;;;;;33.01;29.80;99517.28;4421161;32;19964;-69
2022/06/08 01:19:23;;;;;;;;;;;;;;;33.07;30.06;99512.63;4421573;32;19969;-69
2022/06/08 01:21:51;;;;;;;;;;;;;;;33.18;30.20;99517.75;4423208;32;19969;-69
2022/06/08 01:24:16;;;;;;;;;;;;;;;33.09;30.01;99509.84;4421853;32;20032;-69
2022/06/08 01:26:47;;;;;;;;;;;;;;;33.26;30.25;99497.13;4421070;32;19962;-70
2022/06/08 01:32:01;;;;;;;;;;;;;;;33.38;29.95;99495.81;3947575;32;15843407;-70
2022/06/08 01:39:47;;;;;;;;;;;;;;;33.79;29.62;99475.87;3952083;32;15722603;-68
2022/06/08 01:50:42;;;;;;;;;;;;;;;33.21;30.01;99439.91;3950611;32;15724578;-70
2022/06/08 01:56:04;;;;;;;;;;;;;;;33.39;30.22;99429.50;3969656;32;15746312;-69
2022/06/08 01:58:49;;;;;;;;;;;;;;;33.39;30.22;99429.50;4455523;32;20074;-69
2022/06/08 02:01:19;;;;;;;;;;;;;;;33.09;30.33;99421.63;4453131;32;20406;-70
2022/06/08 02:04:05;;;;;;;;;;;;;;;33.12;30.40;99418.22;4454178;32;19961;-69
2022/06/08 02:06:36;;;;;;;;;;;;;;;33.15;30.48;99419.09;4456206;32;20018;-69
2022/06/08 02:14:18;;;;;;;;;;;;;;;33.21;29.95;99414.47;3950307;32;15722103;-70
2022/06/08 02:16:50;;;;;;;;;;;;;;;33.21;29.95;99414.47;4428734;32;20031;-69
2022/06/08 02:19:34;;;;;;;;;;;;;;;32.73;30.31;99424.97;4426065;32;20264;-70
2022/06/08 02:22:10;;;;;;;;;;;;;;;32.50;30.50;99423.47;4428195;32;19953;-70
2022/06/08 02:24:39;;;;;;;;;;;;;;;32.78;30.14;99418.81;4427493;32;19997;-72
2022/06/08 02:27:10;;;;;;;;;;;;;;;32.74;30.42;99420.69;4426756;32;19983;-72
2022/06/08 02:29:39;;;;;;;;;;;;;;;32.54;30.22;99414.22;4427372;32;20334;-67
2022/06/08 02:35:15;;;;;;;;;;;;;;;32.93;30.59;99405.97;4427374;32;20428;-70
2022/06/08 02:37:42;;;;;;;;;;;;;;;32.76;30.91;99403.34;4428667;32;19957;-69
2022/06/08 02:40:11;;;;;;;;;;;;;;;32.82;30.79;99400.84;4427528;32;19995;-70
2022/06/08 02:42:45;;;;;;;;;;;;;;;32.44;31.03;99396.06;4425615;32;20333;-69
2022/06/08 02:47:48;;;;;;;;;;;;;;;32.45;30.64;99383.78;3949631;32;15723939;-69
2022/06/08 02:50:17;;;;;;;;;;;;;;;32.40;30.80;99381.97;4426605;32;20000;-69
2022/06/08 02:52:45;;;;;;;;;;;;;;;32.37;30.84;99383.22;4428989;32;20388;-69
2022/06/08 02:55:17;;;;;;;;;;;;;;;32.20;31.06;99376.87;4426304;32;20421;-69
2022/06/08 02:57:45;;;;;;;;;;;;;;;32.45;30.79;99366.31;4411767;32;20336;-69
2022/06/08 03:02:57;;;;;;;;;;;;;;;32.79;30.32;99373.69;3949716;32;15723615;-70
2022/06/08 03:08:08;;;;;;;;;;;;;;;33.22;30.19;99363.47;3950976;32;15738540;-69
2022/06/08 03:10:36;;;;;;;;;;;;;;;33.22;30.19;99363.47;4426540;32;20004;-70
2022/06/08 03:13:05;;;;;;;;;;;;;;;32.67;30.46;99372.12;4429637;32;19981;-69
2022/06/08 03:15:31;;;;;;;;;;;;;;;32.63;30.50;99358.81;4426769;32;20047;-69
2022/06/08 03:17:57;;;;;;;;;;;;;;;32.29;30.99;99358.59;4426542;32;19976;-68
2022/06/08 03:20:24;;;;;;;;;;;;;;;32.28;31.09;99357.06;4428583;32;20013;-69
2022/06/08 03:22:49;;;;;;;;;;;;;;;32.45;31.02;99359.72;4429449;32;20284;-69
2022/06/08 03:25:15;;;;;;;;;;;;;;;32.60;30.82;99345.50;4427963;32;20016;-69
2022/06/08 03:27:42;;;;;;;;;;;;;;;32.89;30.50;99341.59;4427824;32;19991;-69
2022/06/08 03:30:09;;;;;;;;;;;;;;;32.91;30.70;99341.75;4426515;32;20434;-68
2022/06/08 03:32:34;;;;;;;;;;;;;;;33.00;30.70;99346.72;4427070;32;20016;-68
2022/06/08 03:35:00;;;;;;;;;;;;;;;33.09;30.41;99345.81;4426672;32;20483;-68
2022/06/08 03:37:25;;;;;;;;;;;;;;;33.11;30.52;99334.31;4428110;32;19966;-68
2022/06/08 03:39:52;;;;;;;;;;;;;;;33.02;30.30;99341.00;4429361;32;19997;-69
2022/06/08 03:42:18;;;;;;;;;;;;;;;33.14;30.47;99341.78;4431534;32;20169;-69
2022/06/08 03:44:43;;;;;;;;;;;;;;;33.06;30.57;99336.19;4426827;32;20025;-68
2022/06/08 03:47:10;;;;;;;;;;;;;;;33.21;30.47;99340.78;4426941;32;20003;-68
2022/06/08 03:49:36;;;;;;;;;;;;;;;33.10;30.32;99327.72;4425630;32;20005;-69
2022/06/08 03:52:03;;;;;;;;;;;;;;;33.15;30.19;99331.66;4430537;32;20492;-68
2022/06/08 03:54:33;;;;;;;;;;;;;;;33.15;30.33;99334.56;4429814;32;19976;-68
2022/06/08 03:57:03;;;;;;;;;;;;;;;33.23;30.00;99329.25;4428512;32;20033;-68
2022/06/08 03:59:29;;;;;;;;;;;;;;;33.11;30.40;99331.37;4425243;32;20009;-68
2022/06/08 04:01:55;;;;;;;;;;;;;;;33.29;30.26;99330.44;4424728;32;20357;-68
2022/06/08 04:04:21;;;;;;;;;;;;;;;33.00;29.89;99335.78;4429304;32;19953;-68
2022/06/08 04:06:46;;;;;;;;;;;;;;;33.29;30.09;99327.50;4428406;32;20359;-68
2022/06/08 04:09:12;;;;;;;;;;;;;;;33.19;30.02;99335.59;4429356;32;19972;-68
2022/06/08 04:11:37;;;;;;;;;;;;;;;33.24;30.23;99325.72;4428202;32;19949;-68
2022/06/08 04:14:03;;;;;;;;;;;;;;;33.16;30.50;99316.44;4426809;32;19958;-68
2022/06/08 04:16:29;;;;;;;;;;;;;;;33.26;30.33;99325.09;4425207;32;19964;-68
2022/06/08 04:18:55;;;;;;;;;;;;;;;33.44;30.04;99315.37;4417519;32;20506;-67
2022/06/08 04:21:20;;;;;;;;;;;;;;;33.50;29.53;99312.09;4418764;32;20433;-67
2022/06/08 04:23:47;;;;;;;;;;;;;;;33.52;30.06;99312.19;4416528;32;20352;-68
2022/06/08 04:26:13;;;;;;;;;;;;;;;33.54;30.30;99315.25;4419369;32;20090;-68
2022/06/08 04:28:40;;;;;;;;;;;;;;;33.65;30.22;99311.59;4417565;32;20380;-67
2022/06/08 04:31:06;;;;;;;;;;;;;;;33.55;29.74;99310.94;4417039;32;20453;-68
2022/06/08 04:33:32;;;;;;;;;;;;;;;33.47;29.89;99305.34;4419094;32;19958;-69
2022/06/08 04:35:58;;;;;;;;;;;;;;;33.74;30.12;99299.78;4401667;32;19988;-69
2022/06/08 04:38:24;;;;;;;;;;;;;;;33.57;30.01;99300.19;4420979;32;19949;-69
2022/06/08 04:40:50;;;;;;;;;;;;;;;33.56;30.20;99300.81;4416582;32;20428;-69
2022/06/08 04:43:16;;;;;;;;;;;;;;;33.52;29.88;99309.28;4421297;32;20019;-69
2022/06/08 04:45:42;;;;;;;;;;;;;;;33.63;29.64;99306.38;4415393;32;20024;-69
2022/06/08 04:48:08;;;;;;;;;;;;;;;33.73;29.94;99309.16;4416855;32;19980;-69
2022/06/08 04:50:34;;;;;;;;;;;;;;;33.64;30.04;99310.06;4418280;32;19981;-69
2022/06/08 04:53:01;;;;;;;;;;;;;;;33.46;29.91;99305.97;4416806;32;21081;-69
2022/06/08 04:55:27;;;;;;;;;;;;;;;33.63;29.94;99311.47;4418798;32;19961;-69
2022/06/08 04:57:53;;;;;;;;;;;;;;;33.28;30.05;99313.56;4416024;32;19980;-69
2022/06/08 05:00:21;;;;;;;;;;;;;;;33.35;30.13;99306.72;4417815;32;20021;-69
2022/06/08 05:02:48;;;;;;;;;;;;;;;33.31;30.36;99304.28;4415270;32;19946;-69
2022/06/08 05:05:16;;;;;;;;;;;;;;;33.34;29.90;99308.88;4419338;32;19958;-69
2022/06/08 05:07:41;;;;;;;;;;;;;;;33.40;30.10;99306.38;4401718;32;20430;-69
2022/06/08 05:10:07;;;;;;;;;;;;;;;33.70;29.70;99307.50;4414671;32;20046;-69
2022/06/08 05:12:33;;;;;;;;;;;;;;;33.50;29.35;99306.25;4415255;32;20614;-69
2022/06/08 05:14:58;;;;;;;;;;;;;;;33.79;29.38;99306.63;4416010;32;20004;-69
2022/06/08 05:17:24;;;;;;;;;;;;;;;33.57;29.34;99299.41;4417323;32;19965;-70
2022/06/08 05:19:50;;;;;;;;;;;;;;;33.65;29.75;99297.00;4414608;32;20348;-70
2022/06/08 05:22:15;;;;;;;;;;;;;;;33.58;29.83;99295.09;4415106;32;20716;-70
2022/06/08 05:24:41;;;;;;;;;;;;;;;33.69;29.57;99300.94;4414830;32;20286;-70
2022/06/08 05:27:06;;;;;;;;;;;;;;;33.76;29.68;99297.00;4418282;32;20212;-69
2022/06/08 05:29:32;;;;;;;;;;;;;;;33.91;29.35;99308.19;4414628;32;19969;-70
2022/06/08 05:31:58;;;;;;;;;;;;;;;33.38;29.50;99300.41;4419759;32;19964;-69
2022/06/08 05:34:24;;;;;;;;;;;;;;;33.55;29.62;99296.34;4415677;32;20237;-69
2022/06/08 05:36:49;;;;;;;;;;;;;;;33.91;29.00;99295.72;4417007;32;20425;-69
2022/06/08 05:39:15;;;;;;;;;;;;;;;33.52;29.54;99292.56;4415237;32;20267;-69
2022/06/08 05:41:41;;;;;;;;;;;;;;;33.36;29.60;99294.41;4419168;32;20016;-69
2022/06/08 05:44:06;;;;;;;;;;;;;;;33.81;29.46;99292.16;4418467;32;20108;-69
2022/06/08 05:46:32;;;;;;;;;;;;;;;33.99;29.02;99296.25;4412851;32;20390;-69
2022/06/08 05:48:58;;;;;;;;;;;;;;;33.43;29.42;99289.75;4415522;32;20024;-69
2022/06/08 05:51:23;;;;;;;;;;;;;;;33.90;28.95;99297.13;4414247;32;20289;-69
2022/06/08 05:53:49;;;;;;;;;;;;;;;34.00;29.18;99289.75;4416161;32;19957;-69
2022/06/08 05:56:14;;;;;;;;;;;;;;;34.02;28.93;99300.81;4416203;32;20030;-69
2022/06/08 05:58:40;;;;;;;;;;;;;;;34.23;28.60;99300.59;4416659;32;20361;-69
2022/06/08 06:01:06;;;;;;;;;;;;;;;34.32;28.48;99293.84;4415476;32;19957;-69
2022/06/08 06:03:32;;;;;;;;;;;;;;;34.32;28.72;99294.63;4415949;32;20432;-69
2022/06/08 06:05:57;;;;;;;;;;;;;;;34.38;28.49;99303.00;4416005;32;20062;-69
2022/06/08 06:08:23;;;;;;;;;;;;;;;34.33;28.54;99299.06;4415001;32;19980;-69
2022/06/08 06:10:49;;;;;;;;;;;;;;;34.45;28.73;99298.28;4419143;32;20623;-69
2022/06/08 06:13:15;;;;;;;;;;;;;;;34.58;29.00;99300.53;4414548;32;19966;-70
2022/06/08 06:15:40;;;;;;;;;;;;;;;34.95;28.24;99298.34;4413892;32;20332;-69
2022/06/08 06:18:07;;;;;;;;;;;;;;;34.77;27.94;99289.25;4412424;32;20043;-69
2022/06/08 06:20:33;;;;;;;;;;;;;;;34.65;28.14;99294.41;4413629;32;20012;-69
2022/06/08 06:22:58;;;;;;;;;;;;;;;34.39;28.01;99287.03;4416109;32;19980;-69
2022/06/08 06:25:24;;;;;;;;;;;;;;;34.39;28.54;99281.91;4414958;32;19991;-69
2022/06/08 06:27:50;;;;;;;;;;;;;;;34.47;28.40;99281.62;4411615;32;20007;-69
2022/06/08 06:30:16;;;;;;;;;;;;;;;34.12;28.54;99289.72;4413574;32;20016;-69
2022/06/08 06:32:42;;;;;;;;;;;;;;;34.13;28.37;99288.31;4411816;32;19953;-69
2022/06/08 06:35:11;;;;;;;;;;;;;;;34.45;28.62;99301.22;4413294;32;20007;-69
2022/06/08 06:37:37;;;;;;;;;;;;;;;34.76;28.00;99293.59;4415642;32;19964;-69
2022/06/08 06:40:03;;;;;;;;;;;;;;;35.17;27.84;99297.44;4411373;32;19965;-69
2022/06/08 06:42:30;;;;;;;;;;;;;;;35.13;27.78;99302.31;4410655;32;20372;-69
2022/06/08 06:44:56;;;;;;;;;;;;;;;35.31;27.49;99294.56;4406844;32;20421;-69
2022/06/08 06:47:22;;;;;;;;;;;;;;;35.23;27.28;99300.72;4409689;32;20017;-69
2022/06/08 06:49:47;;;;;;;;;;;;;;;35.20;26.61;99299.06;4404874;32;20027;-69
2022/06/08 06:52:14;;;;;;;;;;;;;;;34.48;27.34;99294.84;4404125;32;20001;-69
2022/06/08 06:54:40;;;;;;;;;;;;;;;34.88;27.14;99288.44;4405164;32;20008;-69
2022/06/08 06:57:09;;;;;;;;;;;;;;;33.76;27.88;99290.38;4406335;32;20004;-69
2022/06/08 06:59:35;;;;;;;;;;;;;;;34.81;26.93;99285.81;4407768;32;19990;-69
2022/06/08 07:02:01;;;;;;;;;;;;;;;35.35;26.86;99295.56;4401375;32;20001;-69
2022/06/08 07:04:26;;;;;;;;;;;;;;;35.04;26.54;99289.41;4403942;32;20408;-69
2022/06/08 07:06:53;;;;;;;;;;;;;;;35.03;26.80;99293.72;4408670;32;20020;-69
2022/06/08 07:09:19;;;;;;;;;;;;;;;35.15;26.45;99290.72;4404384;32;20403;-70
2022/06/08 07:11:45;;;;;;;;;;;;;;;35.62;25.95;99295.59;4407259;32;19996;-69
2022/06/08 07:14:13;;;;;;;;;;;;;;;35.29;26.03;99301.06;4405867;32;20303;-69
2022/06/08 07:16:39;;;;;;;;;;;;;;;35.39;26.29;99301.63;4411862;32;20346;-70
2022/06/08 07:19:06;;;;;;;;;;;;;;;35.61;26.21;99310.88;4410620;32;20617;-70
2022/06/08 07:21:32;;;;;;;;;;;;;;;35.15;26.02;99311.94;4407584;32;19997;-70
2022/06/08 07:23:58;;;;;;;;;;;;;;;35.14;26.21;99315.50;4404743;32;19980;-70
2022/06/08 07:26:24;;;;;;;;;;;;;;;34.66;26.04;99318.53;4408528;32;20012;-69
2022/06/08 07:28:51;;;;;;;;;;;;;;;34.47;25.71;99318.88;4407298;32;20012;-69
2022/06/08 07:31:16;;;;;;;;;;;;;;;34.42;25.69;99309.84;4403966;32;20624;-70
2022/06/08 07:33:43;;;;;;;;;;;;;;;33.81;26.70;99309.69;4405539;32;20410;-69
2022/06/08 07:36:09;;;;;;;;;;;;;;;34.19;26.48;99312.81;4409388;32;20023;-70
2022/06/08 07:38:34;;;;;;;;;;;;;;;34.12;26.40;99316.75;4407792;32;19957;-70
2022/06/08 07:41:00;;;;;;;;;;;;;;;34.08;26.50;99316.50;4406425;32;20041;-70
2022/06/08 07:43:25;;;;;;;;;;;;;;;34.68;26.87;99322.34;4401324;32;20025;-69
2022/06/08 07:45:51;;;;;;;;;;;;;;;34.18;26.25;99313.47;4409396;32;19992;-69
2022/06/08 07:51:03;;;;;;;;;;;;;;;35.14;25.40;99310.44;4406874;32;19985;-68
2022/06/08 07:53:28;;;;;;;;;;;;;;;35.69;24.04;99317.19;4404975;32;20008;-70
2022/06/08 07:55:54;;;;;;;;;;;;;;;36.08;23.77;99326.66;4411541;32;20008;-70
2022/06/08 07:58:20;;;;;;;;;;;;;;;35.73;23.66;99324.00;4412225;32;20012;-69
2022/06/08 08:00:48;;;;;;;;;;;;;;;35.90;23.45;99316.91;4397052;32;20015;-70
2022/06/08 08:03:16;;;;;;;;;;;;;;;35.37;23.23;99327.09;4411501;32;20485;-72
2022/06/08 08:05:43;;;;;;;;;;;;;;;35.20;23.83;99321.72;4411482;32;20268;-71
2022/06/08 08:08:08;;;;;;;;;;;;;;;35.42;23.63;99323.75;4410041;32;20037;-70
2022/06/08 08:10:34;;;;;;;;;;;;;;;35.34;24.04;99320.34;4410202;32;20328;-71
2022/06/08 08:12:59;;;;;;;;;;;;;;;35.52;23.77;99324.31;4409712;32;20005;-71
2022/06/08 08:15:26;;;;;;;;;;;;;;;35.70;23.52;99319.44;4408712;32;20415;-71
2022/06/08 08:17:51;;;;;;;;;;;;;;;35.77;23.99;99317.63;4412848;32;19962;-70
2022/06/08 08:20:17;;;;;;;;;;;;;;;36.12;23.07;99313.00;4413042;32;19997;-70
2022/06/08 08:22:43;;;;;;;;;;;;;;;35.39;22.82;99312.56;4412559;32;20418;-70
2022/06/08 08:25:10;;;;;;;;;;;;;;;35.92;22.46;99305.31;4405750;32;19991;-70
2022/06/08 08:27:35;;;;;;;;;;;;;;;36.47;22.22;99303.09;4410686;32;20043;-70
2022/06/08 08:30:01;;;;;;;;;;;;;;;36.38;22.04;99295.28;4412398;32;20009;-71
2022/06/08 08:32:26;;;;;;;;;;;;;;;36.69;22.04;99299.06;4412202;32;19965;-71
2022/06/08 08:34:52;;;;;;;;;;;;;;;36.79;22.09;99305.50;4407383;32;20024;-71
2022/06/08 08:37:18;;;;;;;;;;;;;;;36.82;21.83;99297.56;4405822;32;19997;-70
2022/06/08 08:39:44;;;;;;;;;;;;;;;36.18;21.93;99295.72;4405515;32;20000;-71
2022/06/08 08:42:28;;;;;;;;;;;;;;;36.64;21.45;99303.25;4412418;32;20396;-71
2022/06/08 08:44:59;;;;;;;;;;;;;;;36.28;21.28;99321.13;4407605;32;19995;-72
2022/06/08 08:47:38;;;;;;;;;;;;;;;36.82;20.89;99312.97;4407543;32;20007;-71
2022/06/08 08:52:50;;;;;;;;;;;;;;;37.30;20.80;99315.37;3960754;31;15717006;-72
2022/06/08 08:55:17;;;;;;;;;;;;;;;37.30;20.80;99315.37;4445005;32;20061;-72
2022/06/08 08:57:53;;;;;;;;;;;;;;;36.93;21.05;99317.19;4443865;32;20402;-71
2022/06/08 09:00:20;;;;;;;;;;;;;;;36.60;21.48;99322.78;4442868;32;20002;-71
2022/06/08 09:03:17;;;;;;;;;;;;;;;36.73;21.13;99313.97;4443206;32;19989;-71
2022/06/08 09:05:32;;;;;;;;;;;;;;;35.83;22.44;99315.78;4446154;32;20004;-71
2022/06/08 09:07:58;;;;;;;;;;;;;;;35.98;21.69;99317.31;4444066;32;20022;-70
2022/06/08 09:10:25;;;;;;;;;;;;;;;36.48;21.28;99316.31;4441488;32;20050;-70
2022/06/08 09:12:52;;;;;;;;;;;;;;;37.14;20.59;99314.56;4444130;32;20039;-70
2022/06/08 09:15:38;;;;;;;;;;;;;;;36.42;20.72;99321.84;4436914;32;19961;-70
2022/06/08 09:18:05;;;;;;;;;;;;;;;36.97;20.75;99317.38;4438102;32;20648;-71
2022/06/08 09:20:33;;;;;;;;;;;;;;;37.83;19.94;99315.69;4444421;32;20758;-70
2022/06/08 09:23:04;;;;;;;;;;;;;;;38.32;19.09;99316.47;4439776;32;20007;-70
2022/06/08 09:25:31;;;;;;;;;;;;;;;37.71;19.47;99315.13;4446609;32;20457;-71
2022/06/08 09:27:58;;;;;;;;;;;;;;;38.23;18.91;99323.44;4439124;32;20025;-71
2022/06/08 09:30:26;;;;;;;;;;;;;;;37.58;19.81;99319.66;4441018;32;20300;-71
2022/06/08 09:32:58;;;;;;;;;;;;;;;37.11;20.29;99333.47;4442220;32;20589;-70
2022/06/08 09:38:03;;;;;;;;;;;;;;;36.91;20.47;99320.00;3943881;32;15723473;-70
2022/06/08 09:40:40;;;;;;;;;;;;;;;36.91;20.47;99320.00;4409991;32;20388;-70
2022/06/08 09:45:48;;;;;;;;;;;;;;;38.15;18.97;99325.22;3943948;32;15730422;-71
2022/06/08 09:51:35;;;;;;;;;;;;;;;37.81;19.17;99316.38;4423139;32;20329;-70
2022/06/08 09:54:20;;;;;;;;;;;;;;;38.19;19.11;99319.56;4418686;32;19996;-69
2022/06/08 10:02:01;;;;;;;;;;;;;;;38.90;18.27;99332.97;3941323;32;15724417;-71
2022/06/08 10:04:46;;;;;;;;;;;;;;;38.90;18.27;99332.97;4415912;32;20030;-70
2022/06/08 10:07:15;;;;;;;;;;;;;;;38.75;18.73;99331.63;4417588;32;20001;-71
2022/06/08 10:12:30;;;;;;;;;;;;;;;38.84;18.42;99348.19;3942842;32;15742414;-71
2022/06/08 10:15:03;;;;;;;;;;;;;;;38.84;18.42;99348.19;4404444;32;20362;-71
2022/06/08 10:17:39;;;;;;;;;;;;;;;37.54;19.76;99345.13;4420275;32;19964;-72
2022/06/08 10:20:14;;;;;;;;;;;;;;;36.94;20.39;99342.16;4405678;32;20011;-71
2022/06/08 10:22:45;;;;;;;;;;;;;;;37.55;20.37;99347.38;4419902;32;21129;-71
2022/06/08 10:25:17;;;;;;;;;;;;;;;38.83;18.79;99342.97;4421114;32;20411;-71
2022/06/08 10:27:50;;;;;;;;;;;;;;;39.25;18.31;99341.78;4417190;32;20144;-71
2022/06/08 10:30:21;;;;;;;;;;;;;;;38.55;18.89;99342.50;4420090;32;20013;-70
2022/06/08 10:32:50;;;;;;;;;;;;;;;39.52;18.35;99341.44;4422456;32;20122;-70
2022/06/08 10:35:21;;;;;;;;;;;;;;;39.15;18.43;99353.94;4418887;32;20012;-71
2022/06/08 10:37:47;;;;;;;;;;;;;;;38.98;18.59;99348.03;4423849;32;20206;-72
2022/06/08 10:40:16;;;;;;;;;;;;;;;39.11;18.42;99358.88;4421684;32;20048;-71
2022/06/08 10:42:44;;;;;;;;;;;;;;;37.75;19.70;99360.13;4422214;32;19961;-72
2022/06/08 10:50:40;;;;;;;;;;;;;;;37.51;20.68;99364.06;3946113;32;15726691;-71
2022/06/08 10:58:56;;;;;;;;;;;;;;;39.23;18.95;99382.94;3945147;32;15727617;-71
2022/06/08 11:04:33;;;;;;;;;;;;;;;36.84;21.28;99398.09;3943388;32;15723285;-69
2022/06/08 11:09:47;;;;;;;;;;;;;;;37.08;21.48;99402.28;3946435;32;15778613;-70
2022/06/08 11:14:52;;;;;;;;;;;;;;;37.59;21.14;99408.47;3943314;32;15731936;-71
2022/06/08 11:22:39;;;;;;;;;;;;;;;37.13;20.62;99406.16;3912655;32;15725455;-71
2022/06/08 11:25:06;;;;;;;;;;;;;;;37.13;20.62;99406.16;4389406;32;19972;-71
2022/06/08 11:40:46;;;;;;;;;;;;;;;37.84;19.36;99432.50;3937748;32;15725635;-71
2022/06/08 11:45:52;;;;;;;;;;;;;;;37.53;19.83;99435.38;3953180;32;15723202;-71
2022/06/08 11:50:56;;;;;;;;;;;;;;;37.69;19.60;99427.38;3962139;31;15720636;-70
2022/06/08 11:58:42;;;;;;;;;;;;;;;39.09;18.62;99430.19;3946141;32;15722403;-71
2022/06/08 12:01:10;;;;;;;;;;;;;;;39.09;18.62;99430.19;4419966;32;19992;-71
2022/06/08 12:03:42;;;;;;;;;;;;;;;39.21;18.36;99438.75;4422009;32;20073;-71
2022/06/08 12:08:47;;;;;;;;;;;;;;;39.54;17.97;99442.38;3946971;32;15725435;-70
2022/06/08 12:11:13;;;;;;;;;;;;;;;40.44;17.37;99430.50;4420733;32;20073;-70
2022/06/08 12:13:39;;;;;;;;;;;;;;;40.20;17.47;99426.62;4418675;32;21144;-71
2022/06/08 12:16:20;;;;;;;;;;;;;;;39.75;17.62;99432.19;4420079;32;19964;-71
2022/06/08 12:18:51;;;;;;;;;;;;;;;39.64;17.87;99439.84;4415960;32;19962;-71
2022/06/08 12:24:12;;;;;;;;;;;;;;;38.82;18.44;99439.28;3941947;32;15848487;-72
2022/06/08 12:26:42;;;;;;;;;;;;;;;38.82;18.44;99439.28;4423643;32;19967;-72
2022/06/08 12:29:27;;;;;;;;;;;;;;;38.21;19.11;99437.94;4424211;32;19953;-72
2022/06/08 12:34:48;;;;;;;;;;;;;;;37.79;19.67;99451.34;3941767;32;15722543;-69
2022/06/08 12:37:34;;;;;;;;;;;;;;;37.79;19.67;99451.34;4416433;32;19985;-70
2022/06/08 12:40:20;;;;;;;;;;;;;;;36.88;20.47;99447.41;4417233;32;20023;-69
2022/06/08 12:42:51;;;;;;;;;;;;;;;38.20;19.29;99442.31;4419993;32;20028;-70
2022/06/08 12:48:29;;;;;;;;;;;;;;;37.53;18.96;99455.16;3948999;32;15724587;-71
2022/06/08 12:50:56;;;;;;;;;;;;;;;37.53;18.96;99455.16;4419759;32;20378;-71
2022/06/08 12:53:22;;;;;;;;;;;;;;;38.26;18.71;99450.63;4419126;32;20563;-70
2022/06/08 12:55:49;;;;;;;;;;;;;;;39.47;17.57;99457.53;4419582;32;19996;-70
2022/06/08 12:58:16;;;;;;;;;;;;;;;40.02;17.33;99458.34;4418381;32;19999;-69
2022/06/08 13:00:47;;;;;;;;;;;;;;;39.13;17.88;99448.00;4421069;32;20297;-69
2022/06/08 13:03:17;;;;;;;;;;;;;;;40.18;16.90;99446.44;4418667;32;19953;-70
2022/06/08 13:05:44;;;;;;;;;;;;;;;40.47;16.87;99451.97;4418491;32;19997;-70
2022/06/08 13:08:15;;;;;;;;;;;;;;;40.07;17.27;99454.13;4417882;32;19953;-70
2022/06/08 13:10:40;;;;;;;;;;;;;;;39.94;17.22;99460.22;4423938;32;19985;-71
2022/06/08 13:13:09;;;;;;;;;;;;;;;39.98;16.19;99463.31;4421780;32;20019;-70
2022/06/08 13:15:39;;;;;;;;;;;;;;;38.79;17.08;99472.97;4420182;32;19953;-71
2022/06/08 13:18:05;;;;;;;;;;;;;;;39.72;16.46;99474.75;4420732;32;20310;-70
2022/06/08 13:20:33;;;;;;;;;;;;;;;39.35;16.89;99469.53;4421893;32;20085;-70
2022/06/08 13:22:59;;;;;;;;;;;;;;;41.30;15.34;99477.91;4417384;32;20025;-71
2022/06/08 13:25:25;;;;;;;;;;;;;;;42.28;14.63;99482.59;4419038;32;20088;-71
2022/06/08 13:27:52;;;;;;;;;;;;;;;42.07;14.15;99475.31;4422521;32;20007;-71
2022/06/08 13:30:23;;;;;;;;;;;;;;;41.47;14.67;99493.97;4425675;32;20390;-73
2022/06/08 13:32:49;;;;;;;;;;;;;;;40.70;15.36;99475.72;4421203;32;20434;-71
2022/06/08 13:35:16;;;;;;;;;;;;;;;40.87;15.34;99477.84;4418469;32;20701;-71
2022/06/08 13:37:42;;;;;;;;;;;;;;;40.74;15.44;99472.19;4420168;32;20014;-71
2022/06/08 13:40:13;;;;;;;;;;;;;;;41.96;14.31;99475.69;4410274;32;20395;-71
2022/06/08 13:42:40;;;;;;;;;;;;;;;40.26;15.49;99479.16;4408443;32;20004;-71
2022/06/08 13:45:06;;;;;;;;;;;;;;;39.83;15.35;99478.91;4415352;32;20030;-71
2022/06/08 13:47:35;;;;;;;;;;;;;;;39.59;16.01;99466.87;4400425;32;20336;-72
2022/06/08 13:50:17;;;;;;;;;;;;;;;38.48;16.95;99475.94;4416996;32;19996;-70
2022/06/08 13:52:43;;;;;;;;;;;;;;;38.58;17.15;99478.59;4417720;32;19971;-71
2022/06/08 13:55:26;;;;;;;;;;;;;;;38.29;17.79;99473.59;4416448;32;19957;-71
2022/06/08 13:57:54;;;;;;;;;;;;;;;39.26;16.92;99479.47;4416263;32;20333;-71
2022/06/08 14:00:20;;;;;;;;;;;;;;;39.60;15.98;99475.03;4405534;32;20040;-71
2022/06/08 14:02:53;;;;;;;;;;;;;;;40.13;15.50;99483.06;4406943;32;20068;-70
2022/06/08 14:12:59;;;;;;;;;;;;;;;39.80;15.62;99483.94;4407546;32;20475;-71
2022/06/08 14:13:44;;;;;;;;;;;;;;;41.63;14.22;99493.78;4406974;32;19994;-73
2022/06/08 14:16:11;;;;;;;;;;;;;;;41.03;14.79;99490.22;4406608;32;20468;-72
2022/06/08 14:18:41;;;;;;;;;;;;;;;41.90;14.27;99508.00;4403183;32;20450;-72
2022/06/08 14:21:10;;;;;;;;;;;;;;;42.90;13.20;99519.97;4405963;32;20334;-73
2022/06/08 14:23:36;;;;;;;;;;;;;;;43.23;13.01;99512.75;4405223;32;20005;-73
2022/06/08 14:26:03;;;;;;;;;;;;;;;43.88;12.55;99507.84;4406035;32;19977;-73
2022/06/08 14:28:30;;;;;;;;;;;;;;;43.13;13.07;99507.34;4406771;32;19976;-73
2022/06/08 14:30:55;;;;;;;;;;;;;;;43.70;12.73;99506.59;4406443;32;19993;-73
2022/06/08 14:33:31;;;;;;;;;;;;;;;44.98;11.68;99515.50;4402020;32;20001;-72
2022/06/08 14:35:57;;;;;;;;;;;;;;;45.12;11.64;99524.69;4394887;32;20336;-72
2022/06/08 14:38:25;;;;;;;;;;;;;;;46.53;10.93;99519.66;4409251;32;20617;-73
2022/06/08 14:40:52;;;;;;;;;;;;;;;46.58;10.70;99519.69;4395749;32;20128;-72
2022/06/08 14:43:18;;;;;;;;;;;;;;;47.52;10.05;99536.47;4405892;32;20378;-73
2022/06/08 14:45:44;;;;;;;;;;;;;;;46.26;10.52;99544.53;4395215;32;20071;-72
2022/06/08 14:48:13;;;;;;;;;;;;;;;43.89;12.30;99529.34;4406387;32;20000;-72
2022/06/08 14:50:38;;;;;;;;;;;;;;;42.00;13.69;99526.06;4407278;32;20390;-71